createdAt,value
2023-01-09T00:00:15.932Z,50.56
2023-01-09T00:01:15.889Z,45.09
2023-01-09T00:02:15.883Z,48.42
2023-01-09T00:03:15.859Z,47.57
2023-01-09T00:04:15.912Z,58.49
2023-01-09T00:05:15.891Z,50.70
2023-01-09T00:06:15.825Z,54.93
2023-01-09T00:07:15.810Z,54.25
2023-01-09T00:08:15.819Z,54.57
2023-01-09T00:09:15.801Z,47.86
2023-01-09T00:10:15.817Z,50.85
2023-01-09T00:11:15.782Z,44.53
2023-01-09T00:12:15.761Z,47.35
2023-01-09T00:13:15.765Z,50.04
2023-01-09T00:14:15.764Z,61.48
2023-01-09T00:15:15.730Z,55.64
2023-01-09T00:16:15.733Z,45.67
2023-01-09T00:17:15.717Z,49.64
2023-01-09T00:18:15.702Z,63.26
2023-01-09T00:19:15.712Z,52.30
2023-01-09T00:20:15.717Z,47.21
2023-01-09T00:21:15.670Z,47.25
2023-01-09T00:22:15.657Z,45.62
2023-01-09T00:23:15.639Z,45.12
2023-01-09T00:24:15.645Z,45.25
2023-01-09T00:25:15.635Z,44.89
2023-01-09T00:26:15.627Z,46.46
2023-01-09T00:27:15.612Z,53.06
2023-01-09T00:28:15.606Z,48.84
2023-01-09T00:29:15.598Z,53.40
2023-01-09T00:30:15.605Z,52.07
2023-01-09T00:31:15.582Z,48.31
2023-01-09T00:32:15.570Z,54.60
2023-01-09T00:33:15.549Z,51.09
2023-01-09T00:34:15.557Z,54.66
2023-01-09T00:35:15.526Z,48.29
2023-01-09T00:36:15.533Z,48.11
2023-01-09T00:37:15.521Z,54.15
2023-01-09T00:38:15.510Z,55.81
2023-01-09T00:39:15.518Z,54.55
2023-01-09T00:40:15.484Z,63.74
2023-01-09T00:41:15.471Z,55.35
2023-01-09T00:42:15.457Z,49.74
2023-01-09T00:43:15.448Z,52.24
2023-01-09T00:44:15.451Z,48.35
2023-01-09T00:45:16.428Z,51.24
2023-01-09T00:46:15.487Z,51.75
2023-01-09T00:47:15.405Z,53.40
2023-01-09T00:48:15.396Z,48.82
2023-01-09T00:49:15.419Z,51.73
2023-01-09T00:50:15.374Z,57.39
2023-01-09T00:51:15.367Z,51.82
2023-01-09T00:52:15.360Z,48.62
2023-01-09T00:53:15.360Z,49.07
2023-01-09T00:54:15.354Z,47.23
2023-01-09T00:55:15.329Z,46.77
2023-01-09T00:56:15.339Z,46.73
2023-01-09T00:57:15.334Z,51.35
2023-01-09T00:58:15.323Z,47.41
2023-01-09T00:59:15.321Z,52.54
2023-01-09T01:00:15.294Z,49.99
2023-01-09T01:01:15.404Z,46.68
2023-01-09T01:02:15.472Z,47.37
2023-01-09T01:03:15.253Z,48.31
2023-01-09T01:04:15.263Z,46.30
2023-01-09T01:05:15.231Z,48.66
2023-01-09T01:06:15.227Z,59.34
2023-01-09T01:07:15.217Z,51.71
2023-01-09T01:08:15.215Z,48.59
2023-01-09T01:09:15.199Z,49.96
2023-01-09T01:10:15.233Z,47.23
2023-01-09T01:11:15.176Z,62.52
2023-01-09T01:12:15.161Z,53.88
2023-01-09T01:13:15.154Z,47.00
2023-01-09T01:14:15.166Z,48.11
2023-01-09T01:15:15.161Z,51.01
2023-01-09T01:16:15.120Z,64.59
2023-01-09T01:17:15.138Z,48.77
2023-01-09T01:18:15.099Z,47.13
2023-01-09T01:19:15.401Z,48.34
2023-01-09T01:20:15.095Z,54.03
2023-01-09T01:21:15.074Z,47.12
2023-01-09T01:22:15.076Z,49.44
2023-01-09T01:23:15.048Z,49.51
2023-01-09T01:24:15.049Z,46.80
2023-01-09T01:25:15.036Z,48.93
2023-01-09T01:26:15.034Z,52.13
2023-01-09T01:27:15.026Z,52.78
2023-01-09T01:28:16.015Z,49.07
2023-01-09T01:29:14.993Z,50.07
2023-01-09T01:30:14.997Z,49.49
2023-01-09T01:31:14.970Z,47.70
2023-01-09T01:32:14.976Z,48.23
2023-01-09T01:33:14.950Z,47.70
2023-01-09T01:34:15.022Z,51.95
2023-01-09T01:35:14.933Z,47.46
2023-01-09T01:36:14.930Z,48.56
2023-01-09T01:37:14.914Z,49.65
2023-01-09T01:38:14.910Z,49.03
2023-01-09T01:39:14.909Z,46.82
2023-01-09T01:40:14.883Z,47.91
2023-01-09T01:41:14.880Z,53.37
2023-01-09T01:42:14.859Z,47.76
2023-01-09T01:43:14.866Z,49.57
2023-01-09T01:44:14.861Z,52.38
2023-01-09T01:45:14.834Z,52.45
2023-01-09T01:46:14.839Z,47.60
2023-01-09T01:47:14.817Z,47.02
2023-01-09T01:48:14.796Z,46.72
2023-01-09T01:49:14.800Z,53.41
2023-01-09T01:50:14.794Z,63.03
2023-01-09T01:51:46.672Z,52.40
2023-01-09T01:52:14.765Z,47.87
2023-01-09T01:53:14.747Z,47.64
2023-01-09T01:54:14.739Z,54.34
2023-01-09T01:55:14.747Z,49.00
2023-01-09T01:56:14.742Z,52.49
2023-01-09T01:57:14.702Z,48.71
2023-01-09T01:58:14.701Z,48.95
2023-01-09T01:59:14.708Z,49.19
2023-01-09T02:00:14.675Z,49.59
2023-01-09T02:01:14.769Z,48.27
2023-01-09T02:02:14.811Z,53.57
2023-01-09T02:03:14.653Z,52.42
2023-01-09T02:04:14.652Z,64.91
2023-01-09T02:05:14.640Z,51.06
2023-01-09T02:06:14.630Z,55.89
2023-01-09T02:07:14.613Z,57.65
2023-01-09T02:08:14.617Z,54.14
2023-01-09T02:09:14.616Z,49.98
2023-01-09T02:10:14.590Z,51.05
2023-01-09T02:11:14.601Z,55.31
2023-01-09T02:12:14.565Z,63.29
2023-01-09T02:13:14.566Z,53.57
2023-01-09T02:14:14.569Z,52.71
2023-01-09T02:15:14.537Z,53.12
2023-01-09T02:16:14.560Z,50.01
2023-01-09T02:17:14.517Z,50.14
2023-01-09T02:18:14.511Z,55.91
2023-01-09T02:19:14.528Z,54.27
2023-01-09T02:20:14.506Z,65.54
2023-01-09T02:21:14.475Z,50.84
2023-01-09T02:22:14.471Z,55.48
2023-01-09T02:23:14.465Z,49.13
2023-01-09T02:24:14.488Z,50.17
2023-01-09T02:25:14.461Z,57.64
2023-01-09T02:26:14.424Z,50.21
2023-01-09T02:27:14.437Z,49.51
2023-01-09T02:28:14.413Z,48.33
2023-01-09T02:29:14.418Z,51.29
2023-01-09T02:30:14.389Z,51.42
2023-01-09T02:31:14.402Z,51.78
2023-01-09T02:32:14.364Z,54.91
2023-01-09T02:33:14.381Z,50.07
2023-01-09T02:34:14.345Z,51.30
2023-01-09T02:35:14.345Z,52.14
2023-01-09T02:36:14.358Z,50.38
2023-01-09T02:37:14.321Z,50.93
2023-01-09T02:38:14.310Z,54.81
2023-01-09T02:39:14.308Z,50.11
2023-01-09T02:40:14.284Z,53.31
2023-01-09T02:41:14.285Z,50.70
2023-01-09T02:42:14.264Z,47.65
2023-01-09T02:43:14.256Z,50.31
2023-01-09T02:44:14.254Z,52.89
2023-01-09T02:45:14.252Z,49.57
2023-01-09T02:46:14.239Z,46.87
2023-01-09T02:47:14.243Z,47.24
2023-01-09T02:48:14.208Z,47.21
2023-01-09T02:49:14.190Z,49.59
2023-01-09T02:50:14.191Z,52.71
2023-01-09T02:51:14.203Z,49.95
2023-01-09T02:52:14.184Z,52.85
2023-01-09T02:53:14.159Z,58.87
2023-01-09T02:54:14.152Z,59.28
2023-01-09T02:55:14.146Z,53.31
2023-01-09T02:56:14.133Z,56.39
2023-01-09T02:57:14.131Z,59.05
2023-01-09T02:58:14.143Z,51.44
2023-01-09T02:59:14.095Z,51.93
2023-01-09T03:00:14.103Z,62.93
2023-01-09T03:01:14.172Z,51.08
2023-01-09T03:02:14.089Z,52.33
2023-01-09T03:03:14.120Z,66.61
2023-01-09T03:04:14.062Z,54.48
2023-01-09T03:05:14.035Z,50.09
2023-01-09T03:06:14.026Z,47.30
2023-01-09T03:07:14.022Z,47.14
2023-01-09T03:08:14.034Z,51.52
2023-01-09T03:09:13.998Z,56.37
2023-01-09T03:10:14.015Z,46.28
2023-01-09T03:11:13.985Z,45.49
2023-01-09T03:12:13.961Z,54.54
2023-01-09T03:13:14.020Z,47.15
2023-01-09T03:14:13.956Z,48.79
2023-01-09T03:15:13.941Z,56.20
2023-01-09T03:16:13.963Z,53.79
2023-01-09T03:17:13.909Z,46.47
2023-01-09T03:18:13.907Z,57.56
2023-01-09T03:19:13.911Z,50.28
2023-01-09T03:20:13.881Z,51.96
2023-01-09T03:21:13.896Z,54.85
2023-01-09T03:22:13.863Z,53.42
2023-01-09T03:23:13.851Z,48.35
2023-01-09T03:24:13.851Z,62.66
2023-01-09T03:25:13.831Z,50.76
2023-01-09T03:26:13.836Z,56.11
2023-01-09T03:27:13.824Z,48.49
2023-01-09T03:28:13.807Z,53.99
2023-01-09T03:29:13.802Z,63.39
2023-01-09T03:30:13.800Z,47.80
2023-01-09T03:31:13.818Z,48.68
2023-01-09T03:32:13.779Z,48.83
2023-01-09T03:33:13.777Z,50.17
2023-01-09T03:34:13.746Z,53.28
2023-01-09T03:35:13.742Z,51.67
2023-01-09T03:36:13.746Z,51.16
2023-01-09T03:37:13.728Z,49.13
2023-01-09T03:38:13.731Z,50.20
2023-01-09T03:39:13.692Z,63.32
2023-01-09T03:40:13.722Z,53.42
2023-01-09T03:41:13.716Z,55.03
2023-01-09T03:42:13.669Z,53.32
2023-01-09T03:43:13.659Z,50.26
2023-01-09T03:44:13.636Z,54.80
2023-01-09T03:45:14.707Z,54.95
2023-01-09T03:46:13.665Z,51.86
2023-01-09T03:47:13.625Z,51.65
2023-01-09T03:48:13.613Z,50.85
2023-01-09T03:49:13.613Z,53.53
2023-01-09T03:50:13.581Z,52.71
2023-01-09T03:51:13.571Z,56.72
2023-01-09T03:52:13.576Z,54.48
2023-01-09T03:53:13.562Z,54.21
2023-01-09T03:54:13.578Z,53.77
2023-01-09T03:55:15.520Z,54.12
2023-01-09T03:56:14.531Z,54.21
2023-01-09T03:57:13.516Z,52.25
2023-01-09T03:58:13.509Z,52.84
2023-01-09T03:59:13.500Z,56.20
2023-01-09T04:00:13.508Z,58.02
2023-01-09T04:01:13.553Z,55.34
2023-01-09T04:02:13.612Z,54.10
2023-01-09T04:03:13.458Z,58.62
2023-01-09T04:04:13.503Z,58.80
2023-01-09T04:05:13.443Z,57.89
2023-01-09T04:06:13.447Z,56.13
2023-01-09T04:07:13.431Z,54.79
2023-01-09T04:08:13.435Z,56.41
2023-01-09T04:09:13.425Z,61.08
2023-01-09T04:10:13.395Z,57.15
2023-01-09T04:11:13.402Z,56.70
2023-01-09T04:12:13.372Z,57.73
2023-01-09T04:13:13.376Z,53.52
2023-01-09T04:14:13.363Z,57.06
2023-01-09T04:15:13.347Z,55.45
2023-01-09T04:16:13.380Z,53.73
2023-01-09T04:17:13.345Z,55.70
2023-01-09T04:18:13.312Z,53.62
2023-01-09T04:19:13.329Z,53.51
2023-01-09T04:20:13.298Z,55.96
2023-01-09T04:21:13.282Z,53.26
2023-01-09T04:22:13.276Z,54.78
2023-01-09T04:23:13.278Z,57.34
2023-01-09T04:24:13.262Z,56.98
2023-01-09T04:25:13.242Z,56.17
2023-01-09T04:26:13.230Z,53.58
2023-01-09T04:27:13.218Z,56.47
2023-01-09T04:28:13.208Z,56.76
2023-01-09T04:29:13.218Z,66.73
2023-01-09T04:30:13.187Z,57.38
2023-01-09T04:31:13.190Z,60.35
2023-01-09T04:32:13.180Z,56.37
2023-01-09T04:33:13.160Z,57.27
2023-01-09T04:34:13.161Z,55.98
2023-01-09T04:35:13.133Z,58.71
2023-01-09T04:36:13.149Z,59.70
2023-01-09T04:37:13.114Z,61.95
2023-01-09T04:38:13.114Z,57.01
2023-01-09T04:39:13.119Z,58.11
2023-01-09T04:40:13.087Z,57.58
2023-01-09T04:41:13.071Z,56.59
2023-01-09T04:42:13.066Z,51.45
2023-01-09T04:43:13.053Z,55.46
2023-01-09T04:44:13.073Z,56.44
2023-01-09T04:45:13.039Z,58.06
2023-01-09T04:46:13.056Z,56.97
2023-01-09T04:47:13.016Z,57.25
2023-01-09T04:48:13.004Z,55.67
2023-01-09T04:49:12.995Z,57.29
2023-01-09T04:50:12.995Z,56.57
2023-01-09T04:51:14.089Z,59.98
2023-01-09T04:52:13.963Z,53.96
2023-01-09T04:53:12.954Z,53.50
2023-01-09T04:54:12.945Z,51.97
2023-01-09T04:55:12.952Z,62.58
2023-01-09T04:56:12.932Z,58.81
2023-01-09T04:57:12.904Z,56.42
2023-01-09T04:58:12.908Z,55.99
2023-01-09T04:59:12.905Z,55.39
2023-01-09T05:00:12.895Z,55.54
2023-01-09T05:01:13.001Z,57.78
2023-01-09T05:02:12.960Z,57.32
2023-01-09T05:03:12.846Z,51.31
2023-01-09T05:04:12.871Z,56.85
2023-01-09T05:05:12.840Z,56.88
2023-01-09T05:06:12.824Z,54.82
2023-01-09T05:07:12.835Z,53.12
2023-01-09T05:08:12.805Z,56.63
2023-01-09T05:09:12.811Z,56.98
2023-01-09T05:10:12.773Z,55.50
2023-01-09T05:11:12.781Z,55.86
2023-01-09T05:12:12.769Z,57.44
2023-01-09T05:13:12.775Z,54.73
2023-01-09T05:14:12.741Z,56.22
2023-01-09T05:15:13.738Z,52.38
2023-01-09T05:16:12.770Z,55.65
2023-01-09T05:17:12.717Z,57.45
2023-01-09T05:18:12.724Z,58.76
2023-01-09T05:19:12.866Z,57.26
2023-01-09T05:20:12.686Z,56.73
2023-01-09T05:21:12.686Z,58.24
2023-01-09T05:22:12.654Z,56.96
2023-01-09T05:23:12.674Z,63.10
2023-01-09T05:24:12.634Z,55.51
2023-01-09T05:25:12.630Z,56.20
2023-01-09T05:26:12.620Z,57.11
2023-01-09T05:27:12.624Z,54.93
2023-01-09T05:28:12.597Z,57.26
2023-01-09T05:29:12.607Z,56.91
2023-01-09T05:30:13.688Z,56.80
2023-01-09T05:31:13.672Z,58.86
2023-01-09T05:32:12.558Z,57.76
2023-01-09T05:33:12.566Z,56.50
2023-01-09T05:34:12.551Z,56.24
2023-01-09T05:35:12.561Z,55.74
2023-01-09T05:36:12.538Z,58.66
2023-01-09T05:37:12.511Z,64.72
2023-01-09T05:38:12.503Z,59.04
2023-01-09T05:39:12.500Z,57.32
2023-01-09T05:40:12.517Z,58.51
2023-01-09T05:41:12.497Z,57.78
2023-01-09T05:42:12.462Z,57.98
2023-01-09T05:43:12.459Z,57.73
2023-01-09T05:44:12.453Z,60.01
2023-01-09T05:45:12.437Z,56.92
2023-01-09T05:46:12.456Z,58.54
2023-01-09T05:47:12.435Z,58.73
2023-01-09T05:48:12.394Z,57.58
2023-01-09T05:49:12.385Z,58.77
2023-01-09T05:50:12.380Z,57.53
2023-01-09T05:51:12.376Z,59.71
2023-01-09T05:52:12.384Z,61.16
2023-01-09T05:53:12.346Z,59.34
2023-01-09T05:54:12.343Z,59.95
2023-01-09T05:55:12.347Z,57.88
2023-01-09T05:56:12.343Z,65.58
2023-01-09T05:57:12.318Z,59.39
2023-01-09T05:58:12.294Z,59.51
2023-01-09T05:59:12.294Z,59.26
2023-01-09T06:00:12.300Z,55.34
2023-01-09T06:01:12.278Z,66.13
2023-01-09T06:02:12.344Z,58.70
2023-01-09T06:03:12.317Z,58.12
2023-01-09T06:04:12.243Z,59.45
2023-01-09T06:05:12.246Z,58.64
2023-01-09T06:06:12.230Z,60.99
2023-01-09T06:07:15.528Z,58.78
2023-01-09T06:08:12.197Z,57.91
2023-01-09T06:09:12.208Z,59.19
2023-01-09T06:10:12.187Z,57.99
2023-01-09T06:11:12.173Z,59.66
2023-01-09T06:12:12.154Z,59.97
2023-01-09T06:13:12.164Z,57.85
2023-01-09T06:14:12.139Z,60.42
2023-01-09T06:15:12.148Z,59.35
2023-01-09T06:16:13.151Z,60.99
2023-01-09T06:17:12.136Z,59.35
2023-01-09T06:18:12.095Z,59.18
2023-01-09T06:19:12.092Z,59.34
2023-01-09T06:20:12.076Z,58.45
2023-01-09T06:21:12.060Z,61.39
2023-01-09T06:22:12.056Z,60.62
2023-01-09T06:23:13.471Z,59.50
2023-01-09T06:24:13.061Z,58.94
2023-01-09T06:25:12.038Z,61.08
2023-01-09T06:26:12.024Z,58.94
2023-01-09T06:27:13.046Z,59.05
2023-01-09T06:28:11.998Z,59.81
2023-01-09T06:29:11.986Z,58.30
2023-01-09T06:30:11.993Z,60.59
2023-01-09T06:31:12.991Z,60.16
2023-01-09T06:32:11.959Z,59.51
2023-01-09T06:33:11.944Z,60.23
2023-01-09T06:34:11.943Z,61.10
2023-01-09T06:35:11.923Z,62.25
2023-01-09T06:36:11.935Z,60.74
2023-01-09T06:37:11.936Z,60.88
2023-01-09T06:38:11.894Z,60.65
2023-01-09T06:39:11.882Z,59.71
2023-01-09T06:40:11.898Z,60.24
2023-01-09T06:41:11.865Z,59.28
2023-01-09T06:42:11.845Z,57.73
2023-01-09T06:43:11.843Z,59.78
2023-01-09T06:44:11.818Z,60.18
2023-01-09T06:45:11.842Z,59.04
2023-01-09T06:46:11.847Z,59.93
2023-01-09T06:47:11.796Z,61.11
2023-01-09T06:48:11.801Z,57.85
2023-01-09T06:49:11.783Z,61.33
2023-01-09T06:50:11.770Z,60.38
2023-01-09T06:51:11.783Z,61.13
2023-01-09T06:52:11.766Z,61.18
2023-01-09T06:53:11.743Z,59.14
2023-01-09T06:54:11.743Z,58.13
2023-01-09T06:55:11.724Z,60.09
2023-01-09T06:56:11.734Z,60.91
2023-01-09T06:57:11.705Z,59.76
2023-01-09T06:58:11.714Z,60.29
2023-01-09T06:59:11.685Z,58.95
2023-01-09T07:00:11.666Z,58.47
2023-01-09T07:01:11.746Z,58.52
2023-01-09T07:02:11.688Z,57.50
2023-01-09T07:03:12.660Z,57.44
2023-01-09T07:04:11.658Z,59.25
2023-01-09T07:05:11.630Z,59.26
2023-01-09T07:06:11.619Z,59.88
2023-01-09T07:07:11.598Z,62.48
2023-01-09T07:08:11.614Z,59.89
2023-01-09T07:09:11.594Z,60.58
2023-01-09T07:10:11.575Z,58.37
2023-01-09T07:11:11.577Z,61.08
2023-01-09T07:12:11.569Z,59.91
2023-01-09T07:13:11.561Z,58.78
2023-01-09T07:14:11.566Z,58.91
2023-01-09T07:15:11.527Z,58.19
2023-01-09T07:16:11.563Z,60.63
2023-01-09T07:17:11.519Z,58.35
2023-01-09T07:18:11.491Z,58.09
2023-01-09T07:19:11.525Z,58.54
2023-01-09T07:20:11.466Z,59.31
2023-01-09T07:21:11.528Z,58.86
2023-01-09T07:22:11.483Z,59.26
2023-01-09T07:23:11.450Z,59.06
2023-01-09T07:24:11.445Z,59.24
2023-01-09T07:25:11.468Z,62.60
2023-01-09T07:26:11.422Z,60.24
2023-01-09T07:27:11.419Z,59.31
2023-01-09T07:28:11.396Z,60.28
2023-01-09T07:29:11.393Z,61.93
2023-01-09T07:30:11.406Z,64.68
2023-01-09T07:31:11.381Z,61.23
2023-01-09T07:32:11.357Z,59.11
2023-01-09T07:33:11.381Z,58.87
2023-01-09T07:34:11.337Z,57.31
2023-01-09T07:35:11.331Z,58.45
2023-01-09T07:36:11.338Z,59.02
2023-01-09T07:37:11.355Z,60.32
2023-01-09T07:38:11.297Z,57.29
2023-01-09T07:39:11.313Z,57.10
2023-01-09T07:40:11.291Z,57.53
2023-01-09T07:41:11.289Z,60.29
2023-01-09T07:42:11.289Z,58.51
2023-01-09T07:43:11.251Z,60.44
2023-01-09T07:44:11.338Z,59.74
2023-01-09T07:45:11.229Z,58.27
2023-01-09T07:46:11.306Z,59.71
2023-01-09T07:47:11.218Z,59.59
2023-01-09T07:48:11.201Z,58.91
2023-01-09T07:49:11.209Z,61.31
2023-01-09T07:50:11.211Z,60.27
2023-01-09T07:51:11.205Z,59.53
2023-01-09T07:52:43.059Z,58.88
2023-01-09T07:53:11.172Z,59.79
2023-01-09T07:54:11.143Z,59.64
2023-01-09T07:55:11.158Z,57.93
2023-01-09T07:56:11.131Z,58.73
2023-01-09T07:57:11.115Z,59.24
2023-01-09T07:58:11.141Z,57.85
2023-01-09T07:59:11.106Z,57.11
2023-01-09T08:00:11.112Z,57.70
2023-01-09T08:01:11.220Z,66.13
2023-01-09T08:02:11.137Z,59.38
2023-01-09T08:03:11.137Z,62.33
2023-01-09T08:04:11.060Z,59.18
2023-01-09T08:05:11.047Z,59.91
2023-01-09T08:06:11.055Z,59.05
2023-01-09T08:07:11.044Z,57.74
2023-01-09T08:08:11.010Z,58.95
2023-01-09T08:09:11.007Z,60.83
2023-01-09T08:10:11.023Z,58.39
2023-01-09T08:11:10.977Z,60.68
2023-01-09T08:12:10.969Z,59.61
2023-01-09T08:13:10.975Z,58.72
2023-01-09T08:14:10.983Z,59.09
2023-01-09T08:15:10.976Z,57.68
2023-01-09T08:16:10.960Z,57.20
2023-01-09T08:17:10.942Z,59.26
2023-01-09T08:18:10.944Z,58.66
2023-01-09T08:19:10.919Z,57.18
2023-01-09T08:20:10.902Z,63.17
2023-01-09T08:21:10.890Z,61.23
2023-01-09T08:22:10.877Z,58.84
2023-01-09T08:23:10.881Z,59.04
2023-01-09T08:24:10.863Z,56.73
2023-01-09T08:25:12.476Z,57.86
2023-01-09T08:26:11.836Z,57.95
2023-01-09T08:27:10.840Z,58.07
2023-01-09T08:28:10.815Z,57.53
2023-01-09T08:29:10.825Z,57.48
2023-01-09T08:30:10.815Z,58.62
2023-01-09T08:31:10.842Z,61.16
2023-01-09T08:32:10.777Z,57.83
2023-01-09T08:33:10.773Z,57.78
2023-01-09T08:34:10.820Z,55.85
2023-01-09T08:35:10.756Z,57.73
2023-01-09T08:36:10.872Z,57.27
2023-01-09T08:37:10.833Z,57.09
2023-01-09T08:38:10.734Z,57.83
2023-01-09T08:39:10.710Z,58.60
2023-01-09T08:40:10.736Z,58.77
2023-01-09T08:41:10.686Z,60.29
2023-01-09T08:42:10.680Z,57.21
2023-01-09T08:43:10.678Z,59.29
2023-01-09T08:44:10.684Z,61.71
2023-01-09T08:45:10.671Z,60.79
2023-01-09T08:46:10.712Z,58.17
2023-01-09T08:47:10.615Z,58.89
2023-01-09T08:48:10.622Z,59.78
2023-01-09T08:49:10.753Z,58.68
2023-01-09T08:50:10.620Z,58.80
2023-01-09T08:51:10.601Z,60.73
2023-01-09T08:52:10.619Z,60.36
2023-01-09T08:53:10.586Z,59.90
2023-01-09T08:54:10.559Z,60.01
2023-01-09T08:55:10.593Z,59.04
2023-01-09T08:56:10.562Z,58.93
2023-01-09T08:57:10.533Z,58.64
2023-01-09T08:58:10.548Z,59.84
2023-01-09T08:59:10.507Z,60.27
2023-01-09T09:00:10.498Z,59.34
2023-01-09T09:01:10.608Z,59.83
2023-01-09T09:02:10.491Z,58.07
2023-01-09T09:03:10.489Z,58.58
2023-01-09T09:04:10.527Z,59.19
2023-01-09T09:05:10.453Z,61.74
2023-01-09T09:06:10.518Z,59.53
2023-01-09T09:07:10.442Z,57.89
2023-01-09T09:08:10.461Z,57.72
2023-01-09T09:09:10.430Z,57.70
2023-01-09T09:10:10.408Z,59.81
2023-01-09T09:11:10.410Z,58.98
2023-01-09T09:12:10.388Z,59.78
2023-01-09T09:13:10.366Z,61.88
2023-01-09T09:14:10.379Z,57.70
2023-01-09T09:15:10.358Z,59.72
2023-01-09T09:16:10.450Z,56.52
2023-01-09T09:17:10.348Z,57.72
2023-01-09T09:18:10.314Z,56.73
2023-01-09T09:19:10.307Z,58.07
2023-01-09T09:20:10.304Z,58.52
2023-01-09T09:21:11.506Z,58.93
2023-01-09T09:22:11.279Z,57.79
2023-01-09T09:23:10.260Z,58.04
2023-01-09T09:24:10.261Z,57.51
2023-01-09T09:25:10.253Z,59.12
2023-01-09T09:26:10.259Z,58.34
2023-01-09T09:27:10.230Z,58.22
2023-01-09T09:28:10.216Z,57.25
2023-01-09T09:29:10.215Z,57.31
2023-01-09T09:30:10.195Z,61.68
2023-01-09T09:31:10.273Z,58.82
2023-01-09T09:32:10.182Z,57.43
2023-01-09T09:33:10.159Z,59.45
2023-01-09T09:34:11.166Z,58.72
2023-01-09T09:35:10.173Z,56.97
2023-01-09T09:36:10.157Z,58.87
2023-01-09T09:37:10.261Z,60.16
2023-01-09T09:38:10.131Z,60.21
2023-01-09T09:39:10.125Z,57.50
2023-01-09T09:40:18.370Z,60.33
2023-01-09T09:41:11.098Z,60.76
2023-01-09T09:42:10.157Z,59.30
2023-01-09T09:43:10.096Z,59.90
2023-01-09T09:44:10.064Z,57.41
2023-01-09T09:45:10.062Z,58.18
2023-01-09T09:46:10.128Z,59.40
2023-01-09T09:47:10.132Z,55.99
2023-01-09T09:48:10.027Z,58.25
2023-01-09T09:49:10.080Z,58.93
2023-01-09T09:50:09.998Z,58.14
2023-01-09T09:51:09.998Z,59.51
2023-01-09T09:52:10.041Z,60.56
2023-01-09T09:53:09.987Z,57.35
2023-01-09T09:54:10.875Z,59.42
2023-01-09T09:55:09.964Z,59.82
2023-01-09T09:56:09.927Z,57.49
2023-01-09T09:57:09.945Z,59.19
2023-01-09T09:58:09.914Z,58.74
2023-01-09T09:59:09.916Z,61.10
2023-01-09T10:00:09.929Z,58.63
2023-01-09T10:01:09.891Z,57.66
2023-01-09T10:02:09.942Z,57.70
2023-01-09T10:03:09.882Z,59.64
2023-01-09T10:04:09.860Z,59.27
2023-01-09T10:05:09.896Z,57.20
2023-01-09T10:06:09.824Z,58.61
2023-01-09T10:07:09.845Z,59.56
2023-01-09T10:08:15.672Z,60.75
2023-01-09T10:09:11.806Z,60.31
2023-01-09T10:10:09.816Z,57.95
2023-01-09T10:11:09.809Z,60.74
2023-01-09T10:12:09.792Z,60.09
2023-01-09T10:13:09.778Z,59.00
2023-01-09T10:14:22.939Z,61.32
2023-01-09T10:15:10.758Z,57.32
2023-01-09T10:16:09.773Z,58.98
2023-01-09T10:17:09.747Z,58.94
2023-01-09T10:18:09.844Z,59.39
2023-01-09T10:19:09.703Z,57.70
2023-01-09T10:20:09.717Z,58.01
2023-01-09T10:21:09.750Z,59.88
2023-01-09T10:22:09.733Z,58.29
2023-01-09T10:23:09.675Z,59.08
2023-01-09T10:24:09.662Z,58.79
2023-01-09T10:25:09.851Z,57.57
2023-01-09T10:26:09.663Z,61.10
2023-01-09T10:27:09.636Z,60.72
2023-01-09T10:28:09.626Z,57.76
2023-01-09T10:29:09.630Z,58.08
2023-01-09T10:30:09.614Z,58.74
2023-01-09T10:31:09.732Z,61.28
2023-01-09T10:32:09.569Z,59.83
2023-01-09T10:33:09.589Z,57.73
2023-01-09T10:34:09.620Z,57.31
2023-01-09T10:35:09.588Z,58.46
2023-01-09T10:36:09.576Z,56.75
2023-01-09T10:37:09.633Z,57.97
2023-01-09T10:38:09.566Z,59.04
2023-01-09T10:39:09.511Z,58.14
2023-01-09T10:40:09.518Z,57.38
2023-01-09T10:41:09.506Z,59.14
2023-01-09T10:42:09.505Z,58.80
2023-01-09T10:43:09.486Z,61.63
2023-01-09T10:44:09.463Z,61.52
2023-01-09T10:45:09.473Z,60.27
2023-01-09T10:46:09.505Z,60.35
2023-01-09T10:47:09.551Z,59.01
2023-01-09T10:48:09.425Z,60.67
2023-01-09T10:49:09.507Z,57.68
2023-01-09T10:50:09.494Z,57.98
2023-01-09T10:51:09.474Z,58.13
2023-01-09T10:52:09.397Z,57.59
2023-01-09T10:53:09.443Z,57.42
2023-01-09T10:54:09.374Z,60.50
2023-01-09T10:55:09.355Z,56.96
2023-01-09T10:56:09.409Z,58.62
2023-01-09T10:57:09.348Z,58.78
2023-01-09T10:58:09.347Z,61.27
2023-01-09T10:59:09.326Z,55.71
2023-01-09T11:00:09.315Z,56.34
2023-01-09T11:01:09.347Z,57.81
2023-01-09T11:02:09.309Z,58.82
2023-01-09T11:03:09.319Z,58.59
2023-01-09T11:04:09.311Z,61.26
2023-01-09T11:05:09.273Z,63.34
2023-01-09T11:06:09.262Z,61.44
2023-01-09T11:07:09.250Z,61.21
2023-01-09T11:08:09.269Z,59.26
2023-01-09T11:09:09.248Z,60.08
2023-01-09T11:10:09.222Z,58.05
2023-01-09T11:11:09.227Z,59.13
2023-01-09T11:12:09.204Z,57.48
2023-01-09T11:13:09.227Z,57.06
2023-01-09T11:14:09.211Z,61.18
2023-01-09T11:15:09.162Z,57.68
2023-01-09T11:16:09.416Z,56.89
2023-01-09T11:17:09.166Z,64.84
2023-01-09T11:18:09.141Z,58.41
2023-01-09T11:19:09.151Z,58.90
2023-01-09T11:20:09.134Z,58.97
2023-01-09T11:21:09.283Z,59.24
2023-01-09T11:22:09.196Z,59.05
2023-01-09T11:23:09.106Z,58.13
2023-01-09T11:24:09.076Z,58.53
2023-01-09T11:25:09.060Z,59.88
2023-01-09T11:26:10.991Z,58.17
2023-01-09T11:27:10.055Z,57.40
2023-01-09T11:28:09.135Z,60.36
2023-01-09T11:29:09.027Z,60.14
2023-01-09T11:30:09.038Z,60.18
2023-01-09T11:31:09.043Z,56.39
2023-01-09T11:32:09.116Z,58.73
2023-01-09T11:33:09.008Z,59.35
2023-01-09T11:34:08.989Z,56.88
2023-01-09T11:35:08.970Z,58.26
2023-01-09T11:36:09.018Z,57.72
2023-01-09T11:37:08.995Z,59.42
2023-01-09T11:38:08.951Z,57.60
2023-01-09T11:39:08.928Z,59.99
2023-01-09T11:40:08.926Z,59.32
2023-01-09T11:41:09.003Z,59.09
2023-01-09T11:42:08.909Z,60.40
2023-01-09T11:43:08.899Z,57.93
2023-01-09T11:44:08.890Z,60.56
2023-01-09T11:45:08.875Z,59.48
2023-01-09T11:46:08.905Z,58.80
2023-01-09T11:47:08.847Z,55.95
2023-01-09T11:48:08.853Z,60.29
2023-01-09T11:49:08.935Z,59.61
2023-01-09T11:50:08.820Z,58.24
2023-01-09T11:51:09.013Z,60.28
2023-01-09T11:52:08.800Z,60.99
2023-01-09T11:53:08.962Z,59.70
2023-01-09T11:54:08.809Z,59.22
2023-01-09T11:55:08.774Z,57.77
2023-01-09T11:56:08.766Z,60.34
2023-01-09T11:57:08.776Z,60.21
2023-01-09T11:58:08.754Z,60.76
2023-01-09T11:59:08.735Z,67.09
2023-01-09T12:00:08.736Z,61.95
2023-01-09T12:01:08.720Z,59.11
2023-01-09T12:02:08.741Z,60.71
2023-01-09T12:03:08.742Z,59.19
2023-01-09T12:04:08.674Z,57.21
2023-01-09T12:05:08.673Z,61.38
2023-01-09T12:06:08.679Z,58.63
2023-01-09T12:07:08.675Z,57.62
2023-01-09T12:08:08.645Z,58.51
2023-01-09T12:09:08.631Z,62.21
2023-01-09T12:10:08.643Z,61.97
2023-01-09T12:11:08.619Z,59.12
2023-01-09T12:12:08.596Z,57.80
2023-01-09T12:13:08.587Z,60.14
2023-01-09T12:14:08.588Z,60.00
2023-01-09T12:15:10.032Z,60.95
2023-01-09T12:16:09.659Z,58.19
2023-01-09T12:17:08.552Z,59.21
2023-01-09T12:18:08.545Z,58.75
2023-01-09T12:19:08.549Z,59.76
2023-01-09T12:20:08.556Z,58.71
2023-01-09T12:21:08.507Z,59.75
2023-01-09T12:22:08.492Z,59.75
2023-01-09T12:23:08.487Z,60.37
2023-01-09T12:24:08.475Z,61.10
2023-01-09T12:25:08.474Z,61.27
2023-01-09T12:26:08.477Z,61.20
2023-01-09T12:27:08.459Z,59.04
2023-01-09T12:28:08.436Z,60.31
2023-01-09T12:29:08.452Z,58.49
2023-01-09T12:30:08.431Z,58.89
2023-01-09T12:31:09.122Z,58.49
2023-01-09T12:32:09.471Z,59.44
2023-01-09T12:33:08.397Z,58.64
2023-01-09T12:34:08.400Z,58.28
2023-01-09T12:35:08.396Z,58.83
2023-01-09T12:36:08.342Z,66.20
2023-01-09T12:37:11.415Z,60.13
2023-01-09T12:38:08.324Z,59.71
2023-01-09T12:39:08.351Z,59.34
2023-01-09T12:40:08.306Z,58.88
2023-01-09T12:41:08.364Z,60.31
2023-01-09T12:42:08.340Z,59.06
2023-01-09T12:43:08.320Z,60.74
2023-01-09T12:44:08.294Z,58.89
2023-01-09T12:45:08.323Z,58.97
2023-01-09T12:46:08.308Z,59.25
2023-01-09T12:47:08.246Z,60.90
2023-01-09T12:48:08.254Z,61.32
2023-01-09T12:49:08.243Z,58.68
2023-01-09T12:50:08.213Z,60.73
2023-01-09T12:51:08.203Z,60.99
2023-01-09T12:52:08.236Z,58.46